Airfield :
LOGIN :

Register | Disclaimer

   EN    FR    IT 

 










Legend :    VFR   Marginal VFR   IFR   Intensive IFR   Very Intensive IFR
Visi :
Ceiling :
>= 8 km
>= 3000ft
5 to 8 km
1000 to 3000 ft
1500m to 5 km
500 to 1000 ft
800 to 1500m
200 to 500 ft
< 800m
< 200 ft
Symbols :   Thunderstorms  Fog  Heavy snow  Heavy precipitations  Wind > 20 kt
SIGMETs :     Misc.  Thunderstorms  Icing  Turbulence  Mountain Waves  Volcanic Ashes






- Airport Elevation : 270 ft
- IATA code : OXF


EGTK - Oxford (Kidlington)

CURRENT METAR :
  • 231450Z 27013KT 9999 SCT036 BKN041 15/08 Q1014

EXPIRED METARs :
  • 231420Z 25014KT 9999 BKN025 15/09 Q1014
  • 231350Z 25015KT 9999 SCT029 16/08 Q1014
  • 231320Z 25013KT 9999 SCT028 16/08 Q1014
  • 231250Z 26013KT 230V290 9999 SCT025 15/09 Q1013
  • 231220Z 26013KT 9999 SCT026 SCT031 16/09 Q1013
  • 231150Z 26013KT 9999 SCT028 SCT032 15/09 Q1013
  • 231120Z 27011KT 240V300 9999 BKN025 15/09 Q1013
  • 231050Z 27014KT 240V300 9999 BKN025 14/08 Q1013
  • 231020Z 26013KT 240V300 9999 BKN021 14/09 Q1013

TAF TAF EGTK
Valid from the 23 at 15:00 until the 23 at 22:00 UTC


231355Z 2315/2322 27012KT 9999 SCT030



MET'MAP, your aeronautical weather chart ! - Copyright ORBIFLY December 2007 - Disclaimer

ORBIFLY MET'MAP TEAM :

Programming & Development : Alexandra Zaïnal
Original concept : Baudouin d'Aumeries
Technical & hardware support : Manuel Goepfert
Assistance : Marc-Olivier Méhu




SOURCES & CREDITS :

   NOAA